sensor_id;sensor_type;location;lat;lon;timestamp;temperature;humidity
2477;DHT22;1249;51.270;6.756;2023-04-06T03:44:01;10.00;99.90
2477;DHT22;1249;51.270;6.756;2023-04-06T04:11:59;9.90;99.90
2477;DHT22;1249;51.270;6.756;2023-04-06T04:15:32;9.90;99.90
2477;DHT22;1249;51.270;6.756;2023-04-06T04:18:47;9.80;99.90
2477;DHT22;1249;51.270;6.756;2023-04-06T04:37:14;9.70;99.90
2477;DHT22;1249;51.270;6.756;2023-04-06T05:31:22;9.70;99.90
2477;DHT22;1249;51.270;6.756;2023-04-06T05:33:49;9.70;99.90
2477;DHT22;1249;51.270;6.756;2023-04-06T05:36:15;9.70;99.90
2477;DHT22;1249;51.270;6.756;2023-04-06T05:38:40;9.80;99.90
2477;DHT22;1249;51.270;6.756;2023-04-06T05:41:06;10.20;99.90
2477;DHT22;1249;51.270;6.756;2023-04-06T05:43:31;10.70;99.90
2477;DHT22;1249;51.270;6.756;2023-04-06T05:45:57;11.10;99.90
2477;DHT22;1249;51.270;6.756;2023-04-06T05:48:23;11.60;99.90
2477;DHT22;1249;51.270;6.756;2023-04-06T05:50:49;11.80;99.90
2477;DHT22;1249;51.270;6.756;2023-04-06T05:53:18;12.00;99.90
2477;DHT22;1249;51.270;6.756;2023-04-06T05:55:44;12.20;99.90
2477;DHT22;1249;51.270;6.756;2023-04-06T05:58:09;12.40;99.90
2477;DHT22;1249;51.270;6.756;2023-04-06T06:00:35;12.70;99.90
2477;DHT22;1249;51.270;6.756;2023-04-06T06:03:01;12.80;99.90
2477;DHT22;1249;51.270;6.756;2023-04-06T06:05:29;13.00;99.90
2477;DHT22;1249;51.270;6.756;2023-04-06T06:07:55;13.20;99.90
2477;DHT22;1249;51.270;6.756;2023-04-06T06:10:20;13.30;99.90
2477;DHT22;1249;51.270;6.756;2023-04-06T06:12:46;13.40;99.90
2477;DHT22;1249;51.270;6.756;2023-04-06T06:15:12;13.50;99.90
2477;DHT22;1249;51.270;6.756;2023-04-06T06:17:37;13.60;99.90
2477;DHT22;1249;51.270;6.756;2023-04-06T06:20:07;13.80;99.90
2477;DHT22;1249;51.270;6.756;2023-04-06T06:22:33;14.00;99.90
2477;DHT22;1249;51.270;6.756;2023-04-06T06:24:58;14.20;99.90
2477;DHT22;1249;51.270;6.756;2023-04-06T06:27:24;14.30;99.90
2477;DHT22;1249;51.270;6.756;2023-04-06T06:29:49;14.50;99.90
2477;DHT22;1249;51.270;6.756;2023-04-06T06:32:15;14.60;99.90
2477;DHT22;1249;51.270;6.756;2023-04-06T06:34:41;14.60;99.90
2477;DHT22;1249;51.270;6.756;2023-04-06T06:37:06;14.60;99.90
2477;DHT22;1249;51.270;6.756;2023-04-06T06:39:32;14.80;99.90
2477;DHT22;1249;51.270;6.756;2023-04-06T06:41:57;14.80;99.90
2477;DHT22;1249;51.270;6.756;2023-04-06T06:44:25;14.90;99.90
2477;DHT22;1249;51.270;6.756;2023-04-06T06:46:51;14.90;99.90
2477;DHT22;1249;51.270;6.756;2023-04-06T06:49:17;14.80;99.90
2477;DHT22;1249;51.270;6.756;2023-04-06T06:51:43;14.80;99.90
2477;DHT22;1249;51.270;6.756;2023-04-06T06:54:09;14.90;99.90
2477;DHT22;1249;51.270;6.756;2023-04-06T06:56:35;15.00;99.90
2477;DHT22;1249;51.270;6.756;2023-04-06T06:59:06;15.00;99.90
2477;DHT22;1249;51.270;6.756;2023-04-06T07:01:32;15.10;99.90
2477;DHT22;1249;51.270;6.756;2023-04-06T07:03:58;15.20;99.90
2477;DHT22;1249;51.270;6.756;2023-04-06T07:06:24;15.30;99.90
2477;DHT22;1249;51.270;6.756;2023-04-06T07:08:50;15.40;99.90
2477;DHT22;1249;51.270;6.756;2023-04-06T07:11:16;15.50;99.90
2477;DHT22;1249;51.270;6.756;2023-04-06T07:13:42;15.60;99.90
2477;DHT22;1249;51.270;6.756;2023-04-06T07:16:08;15.70;99.90
2477;DHT22;1249;51.270;6.756;2023-04-06T07:18:33;15.80;99.90
2477;DHT22;1249;51.270;6.756;2023-04-06T07:20:59;16.00;99.90
2477;DHT22;1249;51.270;6.756;2023-04-06T07:23:25;16.00;99.90
2477;DHT22;1249;51.270;6.756;2023-04-06T07:25:50;16.20;99.90
2477;DHT22;1249;51.270;6.756;2023-04-06T07:28:17;16.20;99.90
2477;DHT22;1249;51.270;6.756;2023-04-06T07:30:43;16.20;99.90
2477;DHT22;1249;51.270;6.756;2023-04-06T07:33:09;16.20;99.90
2477;DHT22;1249;51.270;6.756;2023-04-06T07:35:35;16.20;98.10
2477;DHT22;1249;51.270;6.756;2023-04-06T07:38:02;16.30;96.80
2477;DHT22;1249;51.270;6.756;2023-04-06T07:40:27;16.30;96.00
2477;DHT22;1249;51.270;6.756;2023-04-06T07:42:53;16.50;96.10
2477;DHT22;1249;51.270;6.756;2023-04-06T07:45:19;16.60;95.10
2477;DHT22;1249;51.270;6.756;2023-04-06T07:47:45;16.60;93.20
2477;DHT22;1249;51.270;6.756;2023-04-06T07:50:11;16.70;92.00
2477;DHT22;1249;51.270;6.756;2023-04-06T07:52:36;16.80;90.60
2477;DHT22;1249;51.270;6.756;2023-04-06T07:55:02;16.80;89.10
2477;DHT22;1249;51.270;6.756;2023-04-06T07:57:27;16.90;87.70
2477;DHT22;1249;51.270;6.756;2023-04-06T07:59:53;16.90;85.60
2477;DHT22;1249;51.270;6.756;2023-04-06T08:02:19;16.90;84.70
2477;DHT22;1249;51.270;6.756;2023-04-06T08:04:44;16.90;83.40
2477;DHT22;1249;51.270;6.756;2023-04-06T08:07:10;16.90;82.20
2477;DHT22;1249;51.270;6.756;2023-04-06T08:09:36;16.80;80.80
2477;DHT22;1249;51.270;6.756;2023-04-06T08:12:01;16.80;80.50
2477;DHT22;1249;51.270;6.756;2023-04-06T08:14:27;16.80;80.10
2477;DHT22;1249;51.270;6.756;2023-04-06T08:16:53;16.70;79.30
2477;DHT22;1249;51.270;6.756;2023-04-06T08:19:18;16.70;79.10
2477;DHT22;1249;51.270;6.756;2023-04-06T08:21:45;16.70;79.40
2477;DHT22;1249;51.270;6.756;2023-04-06T08:24:11;16.70;80.70
2477;DHT22;1249;51.270;6.756;2023-04-06T08:26:37;16.80;81.50
2477;DHT22;1249;51.270;6.756;2023-04-06T08:29:03;16.80;81.80
2477;DHT22;1249;51.270;6.756;2023-04-06T08:31:29;16.90;82.90
2477;DHT22;1249;51.270;6.756;2023-04-06T08:33:56;16.90;84.10
2477;DHT22;1249;51.270;6.756;2023-04-06T08:36:21;16.90;84.30
2477;DHT22;1249;51.270;6.756;2023-04-06T08:38:48;17.00;83.90
2477;DHT22;1249;51.270;6.756;2023-04-06T08:41:15;17.00;85.80
2477;DHT22;1249;51.270;6.756;2023-04-06T08:43:48;17.10;86.90
2477;DHT22;1249;51.270;6.756;2023-04-06T08:46:14;17.20;88.60
2477;DHT22;1249;51.270;6.756;2023-04-06T08:48:41;17.30;89.90
2477;DHT22;1249;51.270;6.756;2023-04-06T08:51:11;17.40;88.40
2477;DHT22;1249;51.270;6.756;2023-04-06T08:53:37;17.40;88.60
2477;DHT22;1249;51.270;6.756;2023-04-06T08:56:03;17.50;87.70
2477;DHT22;1249;51.270;6.756;2023-04-06T08:58:38;17.60;87.50
2477;DHT22;1249;51.270;6.756;2023-04-06T09:01:07;17.70;87.20
2477;DHT22;1249;51.270;6.756;2023-04-06T09:03:39;17.70;88.80
2477;DHT22;1249;51.270;6.756;2023-04-06T09:06:06;17.90;90.10
2477;DHT22;1249;51.270;6.756;2023-04-06T09:08:33;17.90;90.50
2477;DHT22;1249;51.270;6.756;2023-04-06T09:11:01;18.00;91.00
2477;DHT22;1249;51.270;6.756;2023-04-06T09:13:26;18.10;92.30
2477;DHT22;1249;51.270;6.756;2023-04-06T09:16:02;18.20;92.30
2477;DHT22;1249;51.270;6.756;2023-04-06T09:18:30;18.20;92.50
2477;DHT22;1249;51.270;6.756;2023-04-06T09:23:24;18.20;92.60
2477;DHT22;1249;51.270;6.756;2023-04-06T09:25:50;18.20;92.20
2477;DHT22;1249;51.270;6.756;2023-04-06T09:28:16;18.20;92.00
2477;DHT22;1249;51.270;6.756;2023-04-06T09:30:48;18.20;92.30
2477;DHT22;1249;51.270;6.756;2023-04-06T09:33:22;18.20;91.80
2477;DHT22;1249;51.270;6.756;2023-04-06T09:35:51;18.30;91.80
2477;DHT22;1249;51.270;6.756;2023-04-06T09:38:16;18.40;91.90
2477;DHT22;1249;51.270;6.756;2023-04-06T09:40:51;18.40;92.40
2477;DHT22;1249;51.270;6.756;2023-04-06T09:43:27;18.50;92.20
2477;DHT22;1249;51.270;6.756;2023-04-06T09:45:53;18.60;91.50
2477;DHT22;1249;51.270;6.756;2023-04-06T09:48:20;18.70;91.00
2477;DHT22;1249;51.270;6.756;2023-04-06T09:50:49;18.80;90.50
2477;DHT22;1249;51.270;6.756;2023-04-06T09:53:18;18.90;90.60
2477;DHT22;1249;51.270;6.756;2023-04-06T09:55:45;19.00;90.60
2477;DHT22;1249;51.270;6.756;2023-04-06T09:58:13;19.10;91.40
2477;DHT22;1249;51.270;6.756;2023-04-06T10:01:05;19.20;91.70
2477;DHT22;1249;51.270;6.756;2023-04-06T10:03:56;19.30;91.20
2477;DHT22;1249;51.270;6.756;2023-04-06T10:06:28;19.30;90.00
2477;DHT22;1249;51.270;6.756;2023-04-06T10:08:58;19.40;90.30
2477;DHT22;1249;51.270;6.756;2023-04-06T10:11:24;19.30;89.70
2477;DHT22;1249;51.270;6.756;2023-04-06T10:13:50;19.30;89.70
2477;DHT22;1249;51.270;6.756;2023-04-06T10:16:16;19.30;89.70
2477;DHT22;1249;51.270;6.756;2023-04-06T10:18:46;19.40;90.90
2477;DHT22;1249;51.270;6.756;2023-04-06T10:21:16;19.50;91.20
2477;DHT22;1249;51.270;6.756;2023-04-06T10:23:48;19.50;91.70
2477;DHT22;1249;51.270;6.756;2023-04-06T10:26:15;19.50;91.90
2477;DHT22;1249;51.270;6.756;2023-04-06T10:28:43;19.50;91.70
2477;DHT22;1249;51.270;6.756;2023-04-06T10:31:09;19.40;90.90
2477;DHT22;1249;51.270;6.756;2023-04-06T10:33:35;19.40;91.00
2477;DHT22;1249;51.270;6.756;2023-04-06T10:36:10;19.30;91.60
2477;DHT22;1249;51.270;6.756;2023-04-06T10:38:40;19.30;91.50
2477;DHT22;1249;51.270;6.756;2023-04-06T10:41:07;19.40;91.50
2477;DHT22;1249;51.270;6.756;2023-04-06T10:43:35;19.60;91.50
2477;DHT22;1249;51.270;6.756;2023-04-06T10:46:01;19.70;90.80
2477;DHT22;1249;51.270;6.756;2023-04-06T10:48:56;19.90;90.30
2477;DHT22;1249;51.270;6.756;2023-04-06T10:51:28;20.10;90.00
2477;DHT22;1249;51.270;6.756;2023-04-06T10:53:54;20.20;88.70
2477;DHT22;1249;51.270;6.756;2023-04-06T10:56:24;20.30;90.20
2477;DHT22;1249;51.270;6.756;2023-04-06T10:58:54;20.40;91.00
2477;DHT22;1249;51.270;6.756;2023-04-06T11:01:24;20.50;91.50
2477;DHT22;1249;51.270;6.756;2023-04-06T11:03:56;20.60;90.70
2477;DHT22;1249;51.270;6.756;2023-04-06T11:06:27;20.60;90.90
2477;DHT22;1249;51.270;6.756;2023-04-06T11:08:55;20.60;90.30
2477;DHT22;1249;51.270;6.756;2023-04-06T11:11:22;20.50;89.50
2477;DHT22;1249;51.270;6.756;2023-04-06T11:13:49;20.30;88.10
2477;DHT22;1249;51.270;6.756;2023-04-06T11:16:22;20.30;88.50
2477;DHT22;1249;51.270;6.756;2023-04-06T11:19:04;20.10;88.90
2477;DHT22;1249;51.270;6.756;2023-04-06T11:21:36;20.00;90.00
2477;DHT22;1249;51.270;6.756;2023-04-06T11:24:10;20.00;90.30
2477;DHT22;1249;51.270;6.756;2023-04-06T11:27:01;19.90;90.20
2477;DHT22;1249;51.270;6.756;2023-04-06T11:29:28;19.80;90.60
2477;DHT22;1249;51.270;6.756;2023-04-06T11:31:59;19.70;90.80
2477;DHT22;1249;51.270;6.756;2023-04-06T11:34:27;19.70;91.10
2477;DHT22;1249;51.270;6.756;2023-04-06T11:36:57;19.70;91.40
2477;DHT22;1249;51.270;6.756;2023-04-06T11:39:25;19.70;91.10
2477;DHT22;1249;51.270;6.756;2023-04-06T11:41:53;19.70;91.30
2477;DHT22;1249;51.270;6.756;2023-04-06T11:44:31;19.80;91.50
2477;DHT22;1249;51.270;6.756;2023-04-06T11:46:58;19.80;92.20
2477;DHT22;1249;51.270;6.756;2023-04-06T11:49:27;19.90;92.50
2477;DHT22;1249;51.270;6.756;2023-04-06T11:51:54;20.10;93.10
2477;DHT22;1249;51.270;6.756;2023-04-06T11:54:36;20.10;93.10
2477;DHT22;1249;51.270;6.756;2023-04-06T11:57:04;20.20;93.70
2477;DHT22;1249;51.270;6.756;2023-04-06T11:59:31;20.30;94.10
2477;DHT22;1249;51.270;6.756;2023-04-06T12:02:00;20.30;94.20
2477;DHT22;1249;51.270;6.756;2023-04-06T12:04:26;20.30;94.90
2477;DHT22;1249;51.270;6.756;2023-04-06T12:06:52;20.30;94.30
2477;DHT22;1249;51.270;6.756;2023-04-06T12:09:18;20.20;93.60
2477;DHT22;1249;51.270;6.756;2023-04-06T12:11:44;20.20;93.50
2477;DHT22;1249;51.270;6.756;2023-04-06T12:14:10;20.20;93.30
2477;DHT22;1249;51.270;6.756;2023-04-06T12:16:36;20.20;93.40
2477;DHT22;1249;51.270;6.756;2023-04-06T12:19:03;20.30;93.60
2477;DHT22;1249;51.270;6.756;2023-04-06T12:21:29;20.20;93.80
2477;DHT22;1249;51.270;6.756;2023-04-06T12:23:56;20.20;94.10
2477;DHT22;1249;51.270;6.756;2023-04-06T12:26:22;20.30;94.10
2477;DHT22;1249;51.270;6.756;2023-04-06T12:28:48;20.20;94.00
2477;DHT22;1249;51.270;6.756;2023-04-06T12:31:17;20.20;94.00
2477;DHT22;1249;51.270;6.756;2023-04-06T12:33:43;20.20;93.90
2477;DHT22;1249;51.270;6.756;2023-04-06T12:36:16;20.20;94.30
2477;DHT22;1249;51.270;6.756;2023-04-06T12:38:44;20.10;94.80
2477;DHT22;1249;51.270;6.756;2023-04-06T12:41:11;20.10;95.40
2477;DHT22;1249;51.270;6.756;2023-04-06T12:43:37;20.20;95.80
2477;DHT22;1249;51.270;6.756;2023-04-06T12:46:02;20.20;95.70
2477;DHT22;1249;51.270;6.756;2023-04-06T12:48:28;20.20;96.00
2477;DHT22;1249;51.270;6.756;2023-04-06T12:51:04;20.20;96.60
2477;DHT22;1249;51.270;6.756;2023-04-06T12:53:31;20.20;96.10
2477;DHT22;1249;51.270;6.756;2023-04-06T12:55:57;20.20;95.30
2477;DHT22;1249;51.270;6.756;2023-04-06T12:58:24;20.20;95.40
2477;DHT22;1249;51.270;6.756;2023-04-06T13:00:52;20.20;95.20
2477;DHT22;1249;51.270;6.756;2023-04-06T13:03:18;20.20;95.00
2477;DHT22;1249;51.270;6.756;2023-04-06T13:05:50;20.30;94.50
2477;DHT22;1249;51.270;6.756;2023-04-06T13:08:18;20.30;94.90
2477;DHT22;1249;51.270;6.756;2023-04-06T13:10:46;20.20;94.40
2477;DHT22;1249;51.270;6.756;2023-04-06T13:13:12;20.20;94.70
2477;DHT22;1249;51.270;6.756;2023-04-06T13:15:37;20.10;94.60
2477;DHT22;1249;51.270;6.756;2023-04-06T13:18:03;20.10;94.60
2477;DHT22;1249;51.270;6.756;2023-04-06T13:20:29;19.90;94.50
2477;DHT22;1249;51.270;6.756;2023-04-06T13:22:55;19.80;95.10
2477;DHT22;1249;51.270;6.756;2023-04-06T13:25:20;19.80;94.80
2477;DHT22;1249;51.270;6.756;2023-04-06T13:27:46;19.70;95.10
2477;DHT22;1249;51.270;6.756;2023-04-06T13:30:14;19.70;95.40
2477;DHT22;1249;51.270;6.756;2023-04-06T13:32:40;19.70;95.90
2477;DHT22;1249;51.270;6.756;2023-04-06T13:35:06;19.70;95.80
2477;DHT22;1249;51.270;6.756;2023-04-06T13:37:33;19.70;95.10
2477;DHT22;1249;51.270;6.756;2023-04-06T13:39:58;19.60;94.70
2477;DHT22;1249;51.270;6.756;2023-04-06T13:42:24;19.50;94.80
2477;DHT22;1249;51.270;6.756;2023-04-06T13:44:49;19.50;94.70
2477;DHT22;1249;51.270;6.756;2023-04-06T13:47:16;19.40;95.10
2477;DHT22;1249;51.270;6.756;2023-04-06T13:49:42;19.40;95.50
2477;DHT22;1249;51.270;6.756;2023-04-06T13:52:08;19.30;94.30
2477;DHT22;1249;51.270;6.756;2023-04-06T13:54:35;19.20;93.10
2477;DHT22;1249;51.270;6.756;2023-04-06T13:57:01;19.10;92.20
2477;DHT22;1249;51.270;6.756;2023-04-06T13:59:34;19.00;91.90
2477;DHT22;1249;51.270;6.756;2023-04-06T14:02:01;19.00;91.30
2477;DHT22;1249;51.270;6.756;2023-04-06T14:04:26;18.90;90.70
2477;DHT22;1249;51.270;6.756;2023-04-06T14:06:52;18.80;89.90
2477;DHT22;1249;51.270;6.756;2023-04-06T14:09:18;18.80;88.40
2477;DHT22;1249;51.270;6.756;2023-04-06T14:11:44;18.70;88.00
2477;DHT22;1249;51.270;6.756;2023-04-06T14:14:09;18.70;88.10
2477;DHT22;1249;51.270;6.756;2023-04-06T14:16:35;18.70;88.90
2477;DHT22;1249;51.270;6.756;2023-04-06T14:19:01;18.70;90.00
2477;DHT22;1249;51.270;6.756;2023-04-06T14:21:26;18.70;90.30
2477;DHT22;1249;51.270;6.756;2023-04-06T14:23:52;18.70;90.80
2477;DHT22;1249;51.270;6.756;2023-04-06T14:26:18;18.80;91.00
2477;DHT22;1249;51.270;6.756;2023-04-06T14:28:45;18.70;91.40
2477;DHT22;1249;51.270;6.756;2023-04-06T14:31:15;18.60;91.20
2477;DHT22;1249;51.270;6.756;2023-04-06T14:33:42;18.60;91.40
2477;DHT22;1249;51.270;6.756;2023-04-06T14:36:08;18.50;91.80
2477;DHT22;1249;51.270;6.756;2023-04-06T14:38:34;18.40;92.30
2477;DHT22;1249;51.270;6.756;2023-04-06T14:41:00;18.30;92.60
2477;DHT22;1249;51.270;6.756;2023-04-06T14:43:26;18.20;92.90
2477;DHT22;1249;51.270;6.756;2023-04-06T14:45:52;18.10;92.80
2477;DHT22;1249;51.270;6.756;2023-04-06T14:48:18;18.00;93.20
2477;DHT22;1249;51.270;6.756;2023-04-06T14:50:54;17.90;93.40
2477;DHT22;1249;51.270;6.756;2023-04-06T14:53:20;17.90;93.70
2477;DHT22;1249;51.270;6.756;2023-04-06T14:55:46;17.80;94.10
2477;DHT22;1249;51.270;6.756;2023-04-06T14:58:12;17.70;94.40
2477;DHT22;1249;51.270;6.756;2023-04-06T15:00:38;17.70;94.70
2477;DHT22;1249;51.270;6.756;2023-04-06T15:03:04;17.70;95.10
2477;DHT22;1249;51.270;6.756;2023-04-06T15:05:30;17.70;95.20
2477;DHT22;1249;51.270;6.756;2023-04-06T15:07:56;17.60;95.40
2477;DHT22;1249;51.270;6.756;2023-04-06T15:10:22;17.60;95.40
2477;DHT22;1249;51.270;6.756;2023-04-06T15:12:47;17.60;95.70
2477;DHT22;1249;51.270;6.756;2023-04-06T15:15:13;17.50;96.20
2477;DHT22;1249;51.270;6.756;2023-04-06T15:17:38;17.50;96.20
2477;DHT22;1249;51.270;6.756;2023-04-06T15:20:05;17.50;96.20
2477;DHT22;1249;51.270;6.756;2023-04-06T15:22:31;17.40;96.30
2477;DHT22;1249;51.270;6.756;2023-04-06T15:24:56;17.40;96.60
2477;DHT22;1249;51.270;6.756;2023-04-06T15:27:22;17.40;97.10
2477;DHT22;1249;51.270;6.756;2023-04-06T15:29:47;17.40;97.10
2477;DHT22;1249;51.270;6.756;2023-04-06T15:32:13;17.40;97.30
2477;DHT22;1249;51.270;6.756;2023-04-06T15:34:39;17.40;97.50
2477;DHT22;1249;51.270;6.756;2023-04-06T15:37:04;17.40;97.70
2477;DHT22;1249;51.270;6.756;2023-04-06T15:39:31;17.40;97.60
2477;DHT22;1249;51.270;6.756;2023-04-06T15:41:57;17.20;97.90
2477;DHT22;1249;51.270;6.756;2023-04-06T15:44:23;17.20;98.80
2477;DHT22;1249;51.270;6.756;2023-04-06T15:46:49;17.20;99.30
2477;DHT22;1249;51.270;6.756;2023-04-06T15:49:16;17.10;99.10
2477;DHT22;1249;51.270;6.756;2023-04-06T15:51:41;17.10;99.90
2477;DHT22;1249;51.270;6.756;2023-04-06T15:54:07;17.10;99.90
2477;DHT22;1249;51.270;6.756;2023-04-06T15:56:33;17.10;99.90
2477;DHT22;1249;51.270;6.756;2023-04-06T15:58:58;17.10;99.90
2477;DHT22;1249;51.270;6.756;2023-04-06T16:01:24;17.10;99.90
2477;DHT22;1249;51.270;6.756;2023-04-06T16:03:50;17.10;99.90
2477;DHT22;1249;51.270;6.756;2023-04-06T16:06:16;17.10;99.90
2477;DHT22;1249;51.270;6.756;2023-04-06T16:08:41;17.10;99.90
2477;DHT22;1249;51.270;6.756;2023-04-06T16:11:08;17.00;99.90
2477;DHT22;1249;51.270;6.756;2023-04-06T16:13:34;16.90;99.90
2477;DHT22;1249;51.270;6.756;2023-04-06T16:16:01;16.90;99.90
2477;DHT22;1249;51.270;6.756;2023-04-06T16:18:28;16.90;99.90
2477;DHT22;1249;51.270;6.756;2023-04-06T16:20:55;16.90;99.90
2477;DHT22;1249;51.270;6.756;2023-04-06T16:23:21;16.90;99.90
2477;DHT22;1249;51.270;6.756;2023-04-06T16:25:46;16.80;99.90
2477;DHT22;1249;51.270;6.756;2023-04-06T16:28:12;16.80;99.90
2477;DHT22;1249;51.270;6.756;2023-04-06T16:30:38;16.80;99.90
2477;DHT22;1249;51.270;6.756;2023-04-06T16:33:04;16.80;99.90
2477;DHT22;1249;51.270;6.756;2023-04-06T16:35:29;16.80;99.90
2477;DHT22;1249;51.270;6.756;2023-04-06T16:37:55;16.80;99.90
2477;DHT22;1249;51.270;6.756;2023-04-06T16:40:21;16.80;99.90
2477;DHT22;1249;51.270;6.756;2023-04-06T16:42:46;16.80;99.90
2477;DHT22;1249;51.270;6.756;2023-04-06T16:45:13;16.80;99.90
2477;DHT22;1249;51.270;6.756;2023-04-06T16:47:39;16.70;99.90
2477;DHT22;1249;51.270;6.756;2023-04-06T16:50:05;16.70;99.90
2477;DHT22;1249;51.270;6.756;2023-04-06T16:52:32;16.70;99.90
2477;DHT22;1249;51.270;6.756;2023-04-06T16:54:58;16.70;99.90
2477;DHT22;1249;51.270;6.756;2023-04-06T16:57:24;16.60;99.90
2477;DHT22;1249;51.270;6.756;2023-04-06T16:59:54;16.60;99.90
2477;DHT22;1249;51.270;6.756;2023-04-06T17:02:20;16.50;99.90
2477;DHT22;1249;51.270;6.756;2023-04-06T17:04:46;16.50;99.90
2477;DHT22;1249;51.270;6.756;2023-04-06T17:07:11;16.60;99.90
2477;DHT22;1249;51.270;6.756;2023-04-06T17:09:37;16.40;99.90
2477;DHT22;1249;51.270;6.756;2023-04-06T17:12:02;16.40;99.90
2477;DHT22;1249;51.270;6.756;2023-04-06T17:14:28;16.50;99.90
2477;DHT22;1249;51.270;6.756;2023-04-06T17:16:54;16.50;99.90
2477;DHT22;1249;51.270;6.756;2023-04-06T17:19:20;16.40;99.90
2477;DHT22;1249;51.270;6.756;2023-04-06T17:21:46;16.40;99.90
2477;DHT22;1249;51.270;6.756;2023-04-06T17:24:12;16.50;99.90
2477;DHT22;1249;51.270;6.756;2023-04-06T17:26:38;16.40;99.90
2477;DHT22;1249;51.270;6.756;2023-04-06T17:29:04;16.40;99.90
2477;DHT22;1249;51.270;6.756;2023-04-06T17:31:30;16.30;99.90
2477;DHT22;1249;51.270;6.756;2023-04-06T17:33:56;16.40;99.90
2477;DHT22;1249;51.270;6.756;2023-04-06T17:36:22;16.40;99.90
2477;DHT22;1249;51.270;6.756;2023-04-06T17:38:48;16.30;99.90
2477;DHT22;1249;51.270;6.756;2023-04-06T17:41:14;16.30;99.90
2477;DHT22;1249;51.270;6.756;2023-04-06T17:43:40;16.30;99.90
2477;DHT22;1249;51.270;6.756;2023-04-06T17:46:06;16.30;99.90
2477;DHT22;1249;51.270;6.756;2023-04-06T17:48:32;16.30;99.90
2477;DHT22;1249;51.270;6.756;2023-04-06T17:50:58;16.30;99.90
2477;DHT22;1249;51.270;6.756;2023-04-06T17:53:23;16.30;99.90
2477;DHT22;1249;51.270;6.756;2023-04-06T17:55:49;16.30;99.90
2477;DHT22;1249;51.270;6.756;2023-04-06T17:58:14;16.30;99.90
2477;DHT22;1249;51.270;6.756;2023-04-06T18:00:40;16.20;99.90
2477;DHT22;1249;51.270;6.756;2023-04-06T18:05:53;16.20;99.90
2477;DHT22;1249;51.270;6.756;2023-04-06T18:08:21;15.80;99.90
2477;DHT22;1249;51.270;6.756;2023-04-06T18:10:47;15.70;99.90
2477;DHT22;1249;51.270;6.756;2023-04-06T18:13:13;15.50;99.90
2477;DHT22;1249;51.270;6.756;2023-04-06T18:15:39;15.40;99.90
2477;DHT22;1249;51.270;6.756;2023-04-06T18:18:04;15.20;99.90
2477;DHT22;1249;51.270;6.756;2023-04-06T18:20:31;15.10;99.90
2477;DHT22;1249;51.270;6.756;2023-04-06T18:22:57;15.00;99.90
2477;DHT22;1249;51.270;6.756;2023-04-06T18:25:22;14.80;99.90
2477;DHT22;1249;51.270;6.756;2023-04-06T18:27:49;14.80;99.90
2477;DHT22;1249;51.270;6.756;2023-04-06T18:30:15;14.70;99.90
2477;DHT22;1249;51.270;6.756;2023-04-06T18:32:42;14.70;99.90
2477;DHT22;1249;51.270;6.756;2023-04-06T18:35:08;14.60;99.90
2477;DHT22;1249;51.270;6.756;2023-04-06T18:37:35;14.50;99.90
2477;DHT22;1249;51.270;6.756;2023-04-06T18:40:01;14.40;99.90
2477;DHT22;1249;51.270;6.756;2023-04-06T18:42:26;14.40;99.90
2477;DHT22;1249;51.270;6.756;2023-04-06T18:44:52;14.30;99.90
2477;DHT22;1249;51.270;6.756;2023-04-06T18:47:17;14.40;99.90
2477;DHT22;1249;51.270;6.756;2023-04-06T18:49:43;14.20;99.90
2477;DHT22;1249;51.270;6.756;2023-04-06T18:52:08;14.20;99.90
2477;DHT22;1249;51.270;6.756;2023-04-06T18:54:34;14.20;99.90
2477;DHT22;1249;51.270;6.756;2023-04-06T18:57:00;14.10;99.90
2477;DHT22;1249;51.270;6.756;2023-04-06T18:59:26;14.10;99.90
2477;DHT22;1249;51.270;6.756;2023-04-06T19:01:54;14.10;99.90
2477;DHT22;1249;51.270;6.756;2023-04-06T19:04:20;14.00;99.90
2477;DHT22;1249;51.270;6.756;2023-04-06T19:06:45;14.00;99.90
2477;DHT22;1249;51.270;6.756;2023-04-06T19:09:11;14.00;99.90
2477;DHT22;1249;51.270;6.756;2023-04-06T19:11:37;13.90;99.90
2477;DHT22;1249;51.270;6.756;2023-04-06T19:14:04;13.90;99.90
2477;DHT22;1249;51.270;6.756;2023-04-06T19:16:29;13.90;99.90
2477;DHT22;1249;51.270;6.756;2023-04-06T19:18:55;13.90;99.90
2477;DHT22;1249;51.270;6.756;2023-04-06T19:21:23;13.90;99.90
2477;DHT22;1249;51.270;6.756;2023-04-06T19:23:50;13.80;99.90
2477;DHT22;1249;51.270;6.756;2023-04-06T19:26:17;13.80;99.90
2477;DHT22;1249;51.270;6.756;2023-04-06T19:28:44;13.70;99.90
2477;DHT22;1249;51.270;6.756;2023-04-06T19:31:12;13.80;99.90
2477;DHT22;1249;51.270;6.756;2023-04-06T19:33:39;13.70;99.90
2477;DHT22;1249;51.270;6.756;2023-04-06T19:36:05;13.60;99.90
2477;DHT22;1249;51.270;6.756;2023-04-06T19:38:32;13.60;99.90
2477;DHT22;1249;51.270;6.756;2023-04-06T19:40:58;13.60;99.90
2477;DHT22;1249;51.270;6.756;2023-04-06T19:43:24;13.60;99.90
2477;DHT22;1249;51.270;6.756;2023-04-06T19:45:50;13.60;99.90
2477;DHT22;1249;51.270;6.756;2023-04-06T19:48:19;13.60;99.90
2477;DHT22;1249;51.270;6.756;2023-04-06T19:50:44;13.50;99.90
2477;DHT22;1249;51.270;6.756;2023-04-06T19:53:10;13.50;99.90
2477;DHT22;1249;51.270;6.756;2023-04-06T19:55:36;13.60;99.90
2477;DHT22;1249;51.270;6.756;2023-04-06T19:58:03;13.40;99.90
2477;DHT22;1249;51.270;6.756;2023-04-06T20:00:29;13.50;99.90
2477;DHT22;1249;51.270;6.756;2023-04-06T20:02:54;13.40;99.90
2477;DHT22;1249;51.270;6.756;2023-04-06T20:05:20;13.40;99.90
2477;DHT22;1249;51.270;6.756;2023-04-06T20:07:47;13.40;99.90
2477;DHT22;1249;51.270;6.756;2023-04-06T20:10:14;13.30;99.90
2477;DHT22;1249;51.270;6.756;2023-04-06T20:12:41;13.30;99.90
2477;DHT22;1249;51.270;6.756;2023-04-06T20:15:07;13.30;99.90
2477;DHT22;1249;51.270;6.756;2023-04-06T20:17:32;13.30;99.90
2477;DHT22;1249;51.270;6.756;2023-04-06T20:19:58;13.30;99.90
2477;DHT22;1249;51.270;6.756;2023-04-06T20:22:24;13.30;99.90
2477;DHT22;1249;51.270;6.756;2023-04-06T20:24:49;13.20;99.90
2477;DHT22;1249;51.270;6.756;2023-04-06T20:27:15;13.30;99.90
2477;DHT22;1249;51.270;6.756;2023-04-06T20:29:42;13.20;99.90
2477;DHT22;1249;51.270;6.756;2023-04-06T20:32:09;13.30;99.90
2477;DHT22;1249;51.270;6.756;2023-04-06T20:34:34;13.20;99.90
2477;DHT22;1249;51.270;6.756;2023-04-06T20:37:01;13.20;99.90
2477;DHT22;1249;51.270;6.756;2023-04-06T20:39:26;13.20;99.90
2477;DHT22;1249;51.270;6.756;2023-04-06T20:41:52;13.20;99.90
2477;DHT22;1249;51.270;6.756;2023-04-06T20:44:17;13.10;99.90
2477;DHT22;1249;51.270;6.756;2023-04-06T20:46:45;13.10;99.90
2477;DHT22;1249;51.270;6.756;2023-04-06T20:49:12;13.10;99.90
2477;DHT22;1249;51.270;6.756;2023-04-06T20:51:39;13.10;99.90
2477;DHT22;1249;51.270;6.756;2023-04-06T20:54:07;13.10;99.90
2477;DHT22;1249;51.270;6.756;2023-04-06T20:56:32;13.10;99.90
2477;DHT22;1249;51.270;6.756;2023-04-06T20:58:58;13.00;99.90
2477;DHT22;1249;51.270;6.756;2023-04-06T21:01:25;13.10;99.90
2477;DHT22;1249;51.270;6.756;2023-04-06T21:03:51;13.00;99.90
2477;DHT22;1249;51.270;6.756;2023-04-06T21:06:17;13.10;99.90
2477;DHT22;1249;51.270;6.756;2023-04-06T21:08:44;13.10;99.90
2477;DHT22;1249;51.270;6.756;2023-04-06T21:11:13;13.00;99.90
2477;DHT22;1249;51.270;6.756;2023-04-06T21:13:39;13.00;99.90
2477;DHT22;1249;51.270;6.756;2023-04-06T21:16:05;13.00;99.90
2477;DHT22;1249;51.270;6.756;2023-04-06T21:18:31;13.00;99.90
2477;DHT22;1249;51.270;6.756;2023-04-06T21:20:57;12.90;99.90
2477;DHT22;1249;51.270;6.756;2023-04-06T21:23:22;13.00;99.90